createdAt,value
2017-08-23T00:00:20.434Z,14.54
2017-08-23T00:01:01.000Z,14.54
2017-08-23T00:01:41.569Z,14.53
2017-08-23T00:02:22.137Z,14.47
2017-08-23T00:03:02.713Z,14.51
2017-08-23T00:03:43.277Z,14.5
2017-08-23T00:04:23.875Z,14.51
2017-08-23T00:05:04.441Z,14.47
2017-08-23T00:05:45.057Z,14.53
2017-08-23T00:06:25.607Z,14.58
2017-08-23T00:07:06.187Z,14.47
2017-08-23T00:07:46.750Z,14.41
2017-08-23T00:08:27.326Z,14.44
2017-08-23T00:09:07.900Z,14.53
2017-08-23T00:09:48.475Z,14.47
2017-08-23T00:10:29.075Z,14.51
2017-08-23T00:11:09.647Z,14.47
2017-08-23T00:11:50.214Z,14.47
2017-08-23T00:12:30.793Z,14.45
2017-08-23T00:13:11.356Z,14.47
2017-08-23T00:13:51.930Z,14.41
2017-08-23T00:14:32.516Z,14.36
2017-08-23T00:15:13.093Z,14.35
2017-08-23T00:15:53.671Z,14.4
2017-08-23T00:16:34.233Z,14.41
2017-08-23T00:17:14.790Z,14.32
2017-08-23T00:17:55.360Z,14.32
2017-08-23T00:18:35.924Z,14.37
2017-08-23T00:19:16.491Z,14.41
2017-08-23T00:19:57.059Z,14.45
2017-08-23T00:20:37.635Z,14.37
2017-08-23T00:21:18.193Z,14.33
2017-08-23T00:21:58.861Z,14.36
2017-08-23T00:22:39.430Z,14.35
2017-08-23T00:23:20.047Z,14.35
2017-08-23T00:24:00.605Z,14.37
2017-08-23T00:24:41.204Z,14.3
2017-08-23T00:25:21.758Z,14.35
2017-08-23T00:26:02.359Z,14.35
2017-08-23T00:26:42.957Z,14.32
2017-08-23T00:27:23.537Z,14.35
2017-08-23T00:28:04.093Z,14.32
2017-08-23T00:28:44.666Z,14.32
2017-08-23T00:29:25.247Z,14.37
2017-08-23T00:30:05.864Z,14.32
2017-08-23T00:30:46.442Z,14.36
2017-08-23T00:31:27.044Z,14.36
2017-08-23T00:32:07.670Z,14.35
2017-08-23T00:32:48.272Z,14.35
2017-08-23T00:33:28.839Z,14.36
2017-08-23T00:34:09.452Z,14.32
2017-08-23T00:34:50.041Z,14.33
2017-08-23T00:35:30.609Z,14.3
2017-08-23T00:36:11.182Z,14.32
2017-08-23T00:36:51.770Z,14.36
2017-08-23T00:37:32.340Z,14.35
2017-08-23T00:38:12.914Z,14.33
2017-08-23T00:38:53.507Z,14.18
2017-08-23T00:39:34.076Z,14.32
2017-08-23T00:40:14.640Z,14.3
2017-08-23T00:40:55.258Z,14.25
2017-08-23T00:41:35.855Z,14.22
2017-08-23T00:42:16.428Z,14.28
2017-08-23T00:42:57.012Z,14.3
2017-08-23T00:43:37.597Z,14.29
2017-08-23T00:44:18.176Z,14.26
2017-08-23T00:44:58.752Z,14.29
2017-08-23T00:45:39.369Z,14.22
2017-08-23T00:46:19.970Z,14.25
2017-08-23T00:47:00.513Z,14.29
2017-08-23T00:47:41.085Z,14.33
2017-08-23T00:48:21.684Z,14.26
2017-08-23T00:49:02.269Z,14.26
2017-08-23T00:49:42.842Z,14.26
2017-08-23T00:50:23.450Z,14.22
2017-08-23T00:51:04.017Z,14.23
2017-08-23T00:51:44.605Z,14.18
2017-08-23T00:52:25.161Z,14.23
2017-08-23T00:53:05.744Z,14.23
2017-08-23T00:53:46.288Z,14.17
2017-08-23T00:54:26.883Z,14.17
2017-08-23T00:55:07.478Z,14.2
2017-08-23T00:55:48.044Z,14.22
2017-08-23T00:56:28.652Z,14.18
2017-08-23T00:57:09.240Z,14.15
2017-08-23T00:57:49.851Z,14.15
2017-08-23T00:58:30.414Z,14.17
2017-08-23T00:59:10.975Z,14.18
2017-08-23T00:59:51.550Z,14.17
2017-08-23T01:00:32.121Z,14.18
2017-08-23T01:01:12.693Z,14.17
2017-08-23T01:01:53.267Z,14.17
2017-08-23T01:02:33.856Z,14.12
2017-08-23T01:03:14.449Z,14.17
2017-08-23T01:03:55.008Z,14.12
2017-08-23T01:04:35.576Z,14.12
2017-08-23T01:05:16.148Z,14.1
2017-08-23T01:05:56.718Z,14.14
2017-08-23T01:06:37.282Z,14.1
2017-08-23T01:07:17.846Z,14.08
2017-08-23T01:07:58.421Z,14.07
2017-08-23T01:08:38.999Z,14.14
2017-08-23T01:09:19.570Z,14.03
2017-08-23T01:10:00.127Z,14.04
2017-08-23T01:10:40.704Z,14.11
2017-08-23T01:11:21.300Z,14.07
2017-08-23T01:12:01.843Z,14.05
2017-08-23T01:12:42.414Z,14.08
2017-08-23T01:13:22.983Z,14.05
2017-08-23T01:14:03.553Z,14.1
2017-08-23T01:14:44.130Z,14.11
2017-08-23T01:15:24.702Z,14.1
2017-08-23T01:16:05.277Z,14.03
2017-08-23T01:16:45.836Z,14.05
2017-08-23T01:17:26.401Z,14.03
2017-08-23T01:18:06.996Z,14
2017-08-23T01:18:47.589Z,14.07
2017-08-23T01:19:28.153Z,14.11
2017-08-23T01:20:08.728Z,14.05
2017-08-23T01:20:49.290Z,14.08
2017-08-23T01:21:29.850Z,14.05
2017-08-23T01:22:10.451Z,14.07
2017-08-23T01:22:51.019Z,14.05
2017-08-23T01:23:31.594Z,14.03
2017-08-23T01:24:12.169Z,14.07
2017-08-23T01:24:52.735Z,14.04
2017-08-23T01:25:33.326Z,14.1
2017-08-23T01:26:13.916Z,13.96
2017-08-23T01:26:54.468Z,14.05
2017-08-23T01:27:35.066Z,14.04
2017-08-23T01:28:15.629Z,13.96
2017-08-23T01:28:56.195Z,14.05
2017-08-23T01:29:36.769Z,13.95
2017-08-23T01:30:17.345Z,14.03
2017-08-23T01:30:57.981Z,14.05
2017-08-23T01:31:38.561Z,14.03
2017-08-23T01:32:19.137Z,14.04
2017-08-23T01:32:59.737Z,14.04
2017-08-23T01:33:40.297Z,13.97
2017-08-23T01:34:20.929Z,13.97
2017-08-23T01:35:01.481Z,14.05
2017-08-23T01:35:42.111Z,14.03
2017-08-23T01:36:22.684Z,13.92
2017-08-23T01:37:03.257Z,14.03
2017-08-23T01:37:43.817Z,14
2017-08-23T01:38:24.405Z,13.96
2017-08-23T01:39:05.020Z,13.96
2017-08-23T01:39:45.587Z,13.95
2017-08-23T01:40:26.155Z,13.92
2017-08-23T01:41:06.757Z,13.92
2017-08-23T01:41:47.351Z,13.97
2017-08-23T01:42:27.947Z,14.04
2017-08-23T01:43:08.520Z,13.92
2017-08-23T01:43:49.131Z,13.89
2017-08-23T01:44:29.732Z,13.86
2017-08-23T01:45:10.282Z,13.9
2017-08-23T01:45:50.961Z,13.93
2017-08-23T01:46:31.536Z,13.92
2017-08-23T01:47:12.129Z,13.9
2017-08-23T01:47:52.710Z,13.97
2017-08-23T01:48:33.395Z,13.86
2017-08-23T01:49:13.964Z,13.95
2017-08-23T01:49:54.540Z,13.87
2017-08-23T01:50:35.106Z,13.93
2017-08-23T01:51:15.697Z,13.85
2017-08-23T01:51:56.254Z,13.9
2017-08-23T01:52:36.837Z,13.93
2017-08-23T01:53:17.412Z,13.87
2017-08-23T01:53:57.987Z,13.92
2017-08-23T01:54:38.581Z,13.86
2017-08-23T01:55:19.140Z,13.86
2017-08-23T01:55:59.708Z,13.85
2017-08-23T01:56:40.278Z,13.95
2017-08-23T01:57:20.875Z,13.85
2017-08-23T01:58:01.459Z,13.78
2017-08-23T01:58:42.011Z,13.83
2017-08-23T01:59:22.578Z,13.83
2017-08-23T02:00:03.130Z,13.86
2017-08-23T02:00:43.704Z,13.79
2017-08-23T02:01:24.272Z,13.78
2017-08-23T02:02:04.831Z,13.83
2017-08-23T02:02:45.443Z,13.78
2017-08-23T02:03:26.024Z,13.78
2017-08-23T02:04:06.584Z,13.83
2017-08-23T02:04:47.154Z,13.79
2017-08-23T02:05:27.732Z,13.86
2017-08-23T02:06:08.309Z,13.85
2017-08-23T02:06:48.877Z,13.81
2017-08-23T02:07:29.447Z,13.79
2017-08-23T02:08:10.033Z,13.81
2017-08-23T02:08:50.610Z,13.85
2017-08-23T02:09:31.178Z,13.85
2017-08-23T02:10:11.765Z,13.86
2017-08-23T02:10:52.334Z,13.86
2017-08-23T02:11:32.917Z,13.78
2017-08-23T02:12:13.499Z,13.81
2017-08-23T02:12:54.067Z,13.81
2017-08-23T02:13:34.663Z,13.83
2017-08-23T02:14:15.241Z,13.83
2017-08-23T02:14:55.828Z,13.75
2017-08-23T02:15:36.412Z,13.83
2017-08-23T02:16:16.964Z,13.77
2017-08-23T02:16:57.524Z,13.79
2017-08-23T02:17:38.094Z,13.83
2017-08-23T02:18:18.677Z,13.77
2017-08-23T02:18:59.294Z,13.85
2017-08-23T02:19:39.920Z,13.77
2017-08-23T02:20:20.504Z,13.77
2017-08-23T02:21:01.068Z,13.86
2017-08-23T02:21:41.680Z,13.83
2017-08-23T02:22:22.245Z,13.83
2017-08-23T02:23:02.807Z,13.78
2017-08-23T02:23:43.393Z,13.75
2017-08-23T02:24:23.996Z,13.77
2017-08-23T02:25:04.580Z,13.79
2017-08-23T02:25:45.130Z,13.75
2017-08-23T02:26:25.703Z,13.78
2017-08-23T02:27:06.283Z,13.79
2017-08-23T02:27:46.829Z,13.74
2017-08-23T02:28:27.398Z,13.75
2017-08-23T02:29:08.010Z,13.77
2017-08-23T02:29:48.622Z,13.71
2017-08-23T02:30:29.211Z,13.74
2017-08-23T02:31:09.787Z,13.75
2017-08-23T02:31:50.356Z,13.72
2017-08-23T02:32:30.928Z,13.71
2017-08-23T02:33:11.499Z,13.75
2017-08-23T02:33:52.068Z,13.74
2017-08-23T02:34:32.665Z,13.71
2017-08-23T02:35:13.251Z,13.68
2017-08-23T02:35:53.828Z,13.74
2017-08-23T02:36:34.392Z,13.72
2017-08-23T02:37:14.975Z,13.68
2017-08-23T02:37:55.554Z,13.68
2017-08-23T02:38:36.125Z,13.7
2017-08-23T02:39:16.707Z,13.71
2017-08-23T02:39:57.279Z,13.67
2017-08-23T02:40:37.865Z,13.67
2017-08-23T02:41:18.440Z,13.68
2017-08-23T02:41:58.998Z,13.62
2017-08-23T02:42:39.585Z,13.62
2017-08-23T02:43:20.182Z,13.63
2017-08-23T02:44:00.743Z,13.65
2017-08-23T02:44:41.327Z,13.62
2017-08-23T02:45:21.890Z,13.7
2017-08-23T02:46:02.469Z,13.67
2017-08-23T02:46:43.024Z,13.67
2017-08-23T02:47:23.593Z,13.67
2017-08-23T02:48:04.154Z,13.68
2017-08-23T02:48:44.753Z,13.65
2017-08-23T02:49:25.332Z,13.68
2017-08-23T02:50:05.900Z,13.65
2017-08-23T02:50:46.479Z,13.59
2017-08-23T02:51:27.041Z,13.59
2017-08-23T02:52:07.609Z,13.6
2017-08-23T02:52:48.173Z,13.62
2017-08-23T02:53:28.748Z,13.54
2017-08-23T02:54:09.316Z,13.63
2017-08-23T02:54:49.893Z,13.59
2017-08-23T02:55:30.467Z,13.54
2017-08-23T02:56:11.085Z,13.59
2017-08-23T02:56:51.656Z,13.54
2017-08-23T02:57:32.222Z,13.54
2017-08-23T02:58:12.812Z,13.52
2017-08-23T02:58:53.382Z,13.52
2017-08-23T02:59:33.953Z,13.6
2017-08-23T03:00:14.516Z,13.59
2017-08-23T03:00:55.080Z,13.59
2017-08-23T03:01:35.673Z,13.52
2017-08-23T03:02:16.235Z,13.49
2017-08-23T03:02:56.831Z,13.49
2017-08-23T03:03:37.420Z,13.49
2017-08-23T03:04:17.986Z,13.47
2017-08-23T03:04:58.555Z,13.46
2017-08-23T03:05:39.121Z,13.54
2017-08-23T03:06:19.703Z,13.49
2017-08-23T03:07:00.288Z,13.49
2017-08-23T03:07:40.854Z,13.49
2017-08-23T03:08:21.448Z,13.47
2017-08-23T03:09:02.029Z,13.53
2017-08-23T03:09:42.594Z,13.49
2017-08-23T03:10:23.146Z,13.42
2017-08-23T03:11:03.716Z,13.47
2017-08-23T03:11:44.311Z,13.42
2017-08-23T03:12:24.888Z,13.49
2017-08-23T03:13:05.463Z,13.5
2017-08-23T03:13:46.036Z,13.42
2017-08-23T03:14:26.618Z,13.52
2017-08-23T03:15:07.187Z,13.53
2017-08-23T03:15:47.748Z,13.56
2017-08-23T03:16:28.331Z,13.5
2017-08-23T03:17:08.895Z,13.52
2017-08-23T03:17:49.453Z,13.5
2017-08-23T03:18:30.026Z,13.47
2017-08-23T03:19:10.588Z,13.52
2017-08-23T03:19:51.161Z,13.49
2017-08-23T03:20:31.730Z,13.52
2017-08-23T03:21:12.349Z,13.52
2017-08-23T03:21:52.868Z,13.41
2017-08-23T03:22:33.428Z,13.49
2017-08-23T03:23:14.005Z,13.42
2017-08-23T03:23:54.577Z,13.37
2017-08-23T03:24:35.138Z,13.44
2017-08-23T03:25:15.719Z,13.44
2017-08-23T03:25:56.294Z,13.44
2017-08-23T03:26:36.857Z,13.47
2017-08-23T03:27:17.439Z,13.39
2017-08-23T03:27:58.008Z,13.42
2017-08-23T03:28:38.576Z,13.47
2017-08-23T03:29:19.134Z,13.5
2017-08-23T03:29:59.693Z,13.47
2017-08-23T03:30:40.272Z,13.47
2017-08-23T03:31:20.856Z,13.46
2017-08-23T03:32:01.410Z,13.39
2017-08-23T03:32:41.974Z,13.44
2017-08-23T03:33:22.545Z,13.49
2017-08-23T03:34:03.105Z,13.41
2017-08-23T03:34:43.676Z,13.47
2017-08-23T03:35:24.243Z,13.38
2017-08-23T03:36:04.820Z,13.46
2017-08-23T03:36:45.405Z,13.41
2017-08-23T03:37:26.006Z,13.47
2017-08-23T03:38:06.577Z,13.39
2017-08-23T03:38:47.166Z,13.42
2017-08-23T03:39:27.735Z,13.47
2017-08-23T03:40:08.302Z,13.46
2017-08-23T03:40:48.883Z,13.42
2017-08-23T03:41:29.460Z,13.42
2017-08-23T03:42:10.046Z,13.46
2017-08-23T03:42:50.603Z,13.41
2017-08-23T03:43:31.169Z,13.53
2017-08-23T03:44:11.746Z,13.46
2017-08-23T03:44:52.365Z,13.39
2017-08-23T03:45:32.925Z,13.52
2017-08-23T03:46:13.480Z,13.42
2017-08-23T03:46:54.054Z,13.42
2017-08-23T03:47:34.649Z,13.5
2017-08-23T03:48:15.215Z,13.5
2017-08-23T03:48:55.785Z,13.42
2017-08-23T03:49:36.354Z,13.49
2017-08-23T03:50:16.927Z,13.44
2017-08-23T03:50:57.530Z,13.47
2017-08-23T03:51:38.101Z,13.56
2017-08-23T03:52:18.660Z,13.5
2017-08-23T03:52:59.233Z,13.47
2017-08-23T03:53:39.805Z,13.54
2017-08-23T03:54:20.378Z,13.54
2017-08-23T03:55:00.941Z,13.44
2017-08-23T03:55:41.547Z,13.53
2017-08-23T03:56:22.135Z,13.42
2017-08-23T03:57:02.693Z,13.56
2017-08-23T03:57:43.256Z,13.41
2017-08-23T03:58:23.833Z,13.44
2017-08-23T03:59:04.393Z,13.63
2017-08-23T03:59:44.960Z,13.44
2017-08-23T04:00:25.545Z,13.6
2017-08-23T04:01:06.104Z,13.53
2017-08-23T04:01:46.701Z,13.42
2017-08-23T04:02:27.268Z,13.47
2017-08-23T04:03:07.846Z,13.46
2017-08-23T04:03:48.414Z,13.53
2017-08-23T04:04:28.981Z,13.49
2017-08-23T04:05:09.561Z,13.59
2017-08-23T04:05:50.129Z,13.52
2017-08-23T04:06:30.773Z,13.46
2017-08-23T04:07:11.335Z,13.47
2017-08-23T04:07:51.905Z,13.5
2017-08-23T04:08:32.499Z,13.52
2017-08-23T04:09:13.082Z,13.59
2017-08-23T04:09:53.644Z,13.57
2017-08-23T04:10:34.201Z,13.54
2017-08-23T04:11:14.770Z,13.5
2017-08-23T04:11:55.334Z,13.54
2017-08-23T04:12:35.897Z,13.56
2017-08-23T04:13:16.484Z,13.6
2017-08-23T04:13:57.060Z,13.54
2017-08-23T04:14:37.629Z,13.54
2017-08-23T04:15:18.199Z,13.53
2017-08-23T04:15:58.778Z,13.5
2017-08-23T04:16:39.342Z,13.59
2017-08-23T04:17:19.914Z,13.6
2017-08-23T04:18:00.501Z,13.56
2017-08-23T04:18:41.091Z,13.56
2017-08-23T04:19:21.676Z,13.56
2017-08-23T04:20:02.246Z,13.59
2017-08-23T04:20:42.837Z,13.54
2017-08-23T04:21:23.408Z,13.57
2017-08-23T04:22:03.980Z,13.62
2017-08-23T04:22:44.542Z,13.62
2017-08-23T04:23:25.116Z,13.54
2017-08-23T04:24:05.697Z,13.54
2017-08-23T04:24:46.275Z,13.59
2017-08-23T04:25:26.841Z,13.56
2017-08-23T04:26:07.427Z,13.59
2017-08-23T04:26:48.006Z,13.62
2017-08-23T04:27:28.597Z,13.57
2017-08-23T04:28:09.170Z,13.59
2017-08-23T04:28:49.761Z,13.67
2017-08-23T04:29:30.335Z,13.68
2017-08-23T04:30:10.901Z,13.62
2017-08-23T04:30:51.465Z,13.56
2017-08-23T04:31:32.028Z,13.68
2017-08-23T04:32:12.597Z,13.7
2017-08-23T04:32:53.161Z,13.71
2017-08-23T04:33:33.734Z,13.68
2017-08-23T04:34:14.291Z,13.68
2017-08-23T04:34:54.862Z,13.68
2017-08-23T04:35:35.437Z,13.6
2017-08-23T04:36:16.004Z,13.71
2017-08-23T04:36:56.579Z,13.67
2017-08-23T04:37:37.160Z,13.68
2017-08-23T04:38:17.736Z,13.72
2017-08-23T04:38:58.328Z,13.7
2017-08-23T04:39:38.909Z,13.7
2017-08-23T04:40:19.473Z,13.72
2017-08-23T04:41:00.043Z,13.78
2017-08-23T04:41:40.609Z,13.74
2017-08-23T04:42:21.196Z,13.75
2017-08-23T04:43:01.769Z,13.77
2017-08-23T04:43:42.345Z,13.78
2017-08-23T04:44:22.913Z,13.71
2017-08-23T04:45:03.482Z,13.7
2017-08-23T04:45:44.079Z,13.75
2017-08-23T04:46:24.675Z,13.77
2017-08-23T04:47:05.245Z,13.78
2017-08-23T04:47:45.805Z,13.79
2017-08-23T04:48:26.374Z,13.78
2017-08-23T04:49:07.012Z,13.79
2017-08-23T04:49:47.574Z,13.79
2017-08-23T04:50:28.155Z,13.83
2017-08-23T04:51:08.726Z,13.78
2017-08-23T04:51:49.291Z,13.81
2017-08-23T04:52:29.874Z,13.78
2017-08-23T04:53:10.442Z,13.78
2017-08-23T04:53:51.021Z,13.79
2017-08-23T04:54:31.610Z,13.79
2017-08-23T04:55:12.176Z,13.78
2017-08-23T04:55:52.746Z,13.75
2017-08-23T04:56:33.317Z,13.78
2017-08-23T04:57:13.892Z,13.79
2017-08-23T04:57:54.454Z,13.89
2017-08-23T04:58:35.014Z,13.87
2017-08-23T04:59:15.589Z,13.93
2017-08-23T04:59:56.169Z,13.92
2017-08-23T05:00:36.745Z,13.87
2017-08-23T05:01:17.328Z,13.86
2017-08-23T05:01:57.909Z,13.86
2017-08-23T05:02:38.467Z,13.85
2017-08-23T05:03:19.039Z,13.86
2017-08-23T05:03:59.609Z,13.87
2017-08-23T05:04:40.176Z,13.83
2017-08-23T05:05:20.737Z,13.83
2017-08-23T05:06:01.310Z,13.81
2017-08-23T05:06:41.920Z,13.78
2017-08-23T05:07:22.508Z,13.77
2017-08-23T05:08:03.081Z,13.79
2017-08-23T05:08:43.648Z,13.77
2017-08-23T05:09:24.232Z,13.77
2017-08-23T05:10:04.798Z,13.79
2017-08-23T05:10:45.386Z,13.77
2017-08-23T05:11:25.932Z,13.79
2017-08-23T05:12:06.504Z,13.75
2017-08-23T05:12:47.079Z,13.77
2017-08-23T05:13:27.650Z,13.85
2017-08-23T05:14:08.210Z,13.81
2017-08-23T05:14:48.787Z,13.78
2017-08-23T05:15:29.351Z,13.75
2017-08-23T05:16:09.936Z,13.78
2017-08-23T05:16:50.506Z,13.86
2017-08-23T05:17:31.081Z,13.87
2017-08-23T05:18:11.645Z,13.89
2017-08-23T05:18:52.220Z,13.86
2017-08-23T05:19:32.808Z,13.89
2017-08-23T05:20:13.366Z,13.9
2017-08-23T05:20:53.910Z,13.9
2017-08-23T05:21:34.498Z,13.95
2017-08-23T05:22:15.064Z,13.99
2017-08-23T05:22:55.645Z,13.95
2017-08-23T05:23:36.214Z,13.92
2017-08-23T05:24:16.781Z,13.99
2017-08-23T05:24:57.369Z,13.99
2017-08-23T05:25:37.949Z,14.08
2017-08-23T05:26:18.518Z,14.08
2017-08-23T05:26:59.096Z,13.95
2017-08-23T05:27:39.674Z,14.08
2017-08-23T05:28:20.248Z,14.05
2017-08-23T05:29:00.818Z,14.05
2017-08-23T05:29:41.391Z,14.08
2017-08-23T05:30:21.964Z,14.07
2017-08-23T05:31:02.529Z,14.03
2017-08-23T05:31:43.133Z,14.08
2017-08-23T05:32:23.703Z,14.07
2017-08-23T05:33:04.255Z,14.08
2017-08-23T05:33:44.815Z,14.05
2017-08-23T05:34:25.433Z,14.03
2017-08-23T05:35:05.996Z,14.08
2017-08-23T05:35:46.561Z,14.08
2017-08-23T05:36:27.150Z,14.08
2017-08-23T05:37:07.705Z,14.07
2017-08-23T05:37:48.301Z,14
2017-08-23T05:38:28.913Z,14.04
2017-08-23T05:39:09.484Z,14.05
2017-08-23T05:39:50.054Z,14.04
2017-08-23T05:40:30.637Z,14.14
2017-08-23T05:41:11.201Z,14.11
2017-08-23T05:41:51.761Z,14.14
2017-08-23T05:42:32.365Z,14.18
2017-08-23T05:43:12.927Z,14.2
2017-08-23T05:43:53.491Z,14.26
2017-08-23T05:44:34.131Z,14.26
2017-08-23T05:45:14.750Z,14.22
2017-08-23T05:45:55.313Z,14.28
2017-08-23T05:46:35.883Z,14.33
2017-08-23T05:47:16.455Z,14.35
2017-08-23T05:47:57.049Z,14.33
2017-08-23T05:48:37.623Z,14.35
2017-08-23T05:49:18.188Z,14.36
2017-08-23T05:49:58.783Z,14.43
2017-08-23T05:50:39.418Z,14.44
2017-08-23T05:51:20.041Z,14.51
2017-08-23T05:52:00.634Z,14.44
2017-08-23T05:52:41.190Z,14.45
2017-08-23T05:53:21.758Z,14.5
2017-08-23T05:54:02.328Z,14.62
2017-08-23T05:54:42.949Z,14.55
2017-08-23T05:55:23.532Z,14.55
2017-08-23T05:56:04.089Z,14.65
2017-08-23T05:56:44.655Z,14.65
2017-08-23T05:57:25.235Z,14.72
2017-08-23T05:58:05.801Z,14.7
2017-08-23T05:58:46.378Z,14.77
2017-08-23T05:59:26.943Z,14.81
2017-08-23T06:00:07.507Z,14.78
2017-08-23T06:00:48.083Z,14.86
2017-08-23T06:01:28.692Z,14.81
2017-08-23T06:02:09.264Z,14.92
2017-08-23T06:02:49.893Z,14.94
2017-08-23T06:03:30.482Z,14.97
2017-08-23T06:04:11.093Z,14.97
2017-08-23T06:04:51.644Z,15.15
2017-08-23T06:05:32.220Z,15.11
2017-08-23T06:06:12.847Z,15.11
2017-08-23T06:06:53.425Z,15.09
2017-08-23T06:07:33.996Z,15.17
2017-08-23T06:08:14.566Z,15.19
2017-08-23T06:08:55.153Z,15.24
2017-08-23T06:09:35.705Z,15.25
2017-08-23T06:10:16.292Z,15.24
2017-08-23T06:10:56.879Z,15.39
2017-08-23T06:11:37.442Z,15.35
2017-08-23T06:12:18.013Z,15.39
2017-08-23T06:12:58.592Z,15.44
2017-08-23T06:13:39.179Z,15.47
2017-08-23T06:14:19.771Z,15.51
2017-08-23T06:15:00.338Z,15.57
2017-08-23T06:15:40.912Z,15.61
2017-08-23T06:16:21.473Z,15.61
2017-08-23T06:17:02.064Z,15.55
2017-08-23T06:17:42.622Z,15.61
2017-08-23T06:18:23.190Z,15.67
2017-08-23T06:19:03.798Z,15.7
2017-08-23T06:19:44.381Z,15.75
2017-08-23T06:20:24.951Z,15.75
2017-08-23T06:21:05.582Z,15.84
2017-08-23T06:21:46.138Z,15.9
2017-08-23T06:22:26.723Z,15.86
2017-08-23T06:23:07.316Z,15.91
2017-08-23T06:23:47.884Z,16.01
2017-08-23T06:24:28.450Z,16.09
2017-08-23T06:25:09.022Z,16.09
2017-08-23T06:25:49.638Z,16.12
2017-08-23T06:26:30.214Z,16.17
2017-08-23T06:27:10.792Z,16.32
2017-08-23T06:27:51.358Z,16.5
2017-08-23T06:28:31.930Z,16.58
2017-08-23T06:29:12.514Z,16.64
2017-08-23T06:29:53.113Z,16.79
2017-08-23T06:30:33.721Z,16.86
2017-08-23T06:31:14.297Z,16.96
2017-08-23T06:31:54.866Z,17.23
2017-08-23T06:32:35.447Z,17.27
2017-08-23T06:33:16.024Z,17.44
2017-08-23T06:33:56.609Z,17.64
2017-08-23T06:34:37.179Z,17.71
2017-08-23T06:35:17.753Z,17.89
2017-08-23T06:35:58.329Z,17.94
2017-08-23T06:36:38.921Z,18.15
2017-08-23T06:37:19.498Z,18.16
2017-08-23T06:38:00.076Z,18.31
2017-08-23T06:38:40.647Z,18.44
2017-08-23T06:39:21.219Z,18.45
2017-08-23T06:40:01.788Z,18.45
2017-08-23T06:40:42.382Z,18.63
2017-08-23T06:41:22.952Z,18.66
2017-08-23T06:42:03.527Z,18.81
2017-08-23T06:42:44.096Z,18.9
2017-08-23T06:43:24.677Z,19.04
2017-08-23T06:44:05.262Z,19.04
2017-08-23T06:44:45.855Z,19
2017-08-23T06:45:26.446Z,18.92
2017-08-23T06:46:07.025Z,18.98
2017-08-23T06:46:47.593Z,18.95
2017-08-23T06:47:28.173Z,19.02
2017-08-23T06:48:08.746Z,19
2017-08-23T06:48:49.333Z,19.18
2017-08-23T06:49:29.904Z,19.14
2017-08-23T06:50:10.497Z,19.4
2017-08-23T06:50:51.065Z,19.45
2017-08-23T06:51:31.673Z,19.58
2017-08-23T06:52:12.266Z,19.55
2017-08-23T06:52:52.840Z,19.59
2017-08-23T06:53:33.427Z,19.71
2017-08-23T06:54:14.017Z,19.84
2017-08-23T06:54:54.630Z,19.86
2017-08-23T06:55:35.236Z,19.94
2017-08-23T06:56:15.824Z,20.02
2017-08-23T06:56:56.412Z,20.11
2017-08-23T06:57:36.997Z,20.19
2017-08-23T06:58:17.569Z,20.22
2017-08-23T06:58:58.129Z,20.29
2017-08-23T06:59:38.712Z,20.4
2017-08-23T07:00:19.300Z,20.51
2017-08-23T07:00:59.867Z,20.52
2017-08-23T07:01:40.453Z,20.58
2017-08-23T07:02:21.024Z,20.6
2017-08-23T07:03:01.611Z,20.74
2017-08-23T07:03:42.225Z,20.74
2017-08-23T07:04:22.810Z,20.75
2017-08-23T07:05:03.378Z,20.7
2017-08-23T07:05:43.961Z,20.69
2017-08-23T07:06:24.534Z,20.7
2017-08-23T07:07:05.125Z,20.63
2017-08-23T07:07:45.718Z,20.7
2017-08-23T07:08:26.284Z,20.66
2017-08-23T07:09:06.862Z,20.56
2017-08-23T07:09:47.441Z,20.55
2017-08-23T07:10:28.026Z,20.48
2017-08-23T07:11:08.632Z,20.41
2017-08-23T07:11:49.205Z,20.39
2017-08-23T07:12:29.772Z,20.43
2017-08-23T07:13:10.338Z,20.43
2017-08-23T07:13:50.917Z,20.37
2017-08-23T07:14:31.497Z,20.52
2017-08-23T07:15:12.099Z,20.63
2017-08-23T07:15:52.682Z,20.63
2017-08-23T07:16:33.282Z,20.81
2017-08-23T07:17:13.871Z,20.85
2017-08-23T07:17:54.458Z,20.99
2017-08-23T07:18:35.045Z,21.06
2017-08-23T07:19:15.642Z,20.97
2017-08-23T07:19:56.227Z,21.05
2017-08-23T07:20:36.845Z,21.15
2017-08-23T07:21:17.438Z,21.32
2017-08-23T07:21:58.026Z,21.48
2017-08-23T07:22:38.611Z,21.5
2017-08-23T07:23:19.192Z,21.55
2017-08-23T07:23:59.871Z,21.67
2017-08-23T07:24:40.790Z,21.8
2017-08-23T07:25:21.383Z,21.82
2017-08-23T07:26:01.967Z,21.95
2017-08-23T07:26:42.560Z,21.95
2017-08-23T07:27:23.142Z,22.06
2017-08-23T07:28:03.737Z,22.04
2017-08-23T07:28:44.314Z,22.08
2017-08-23T07:29:24.884Z,22.14
2017-08-23T07:30:05.452Z,22.23
2017-08-23T07:30:46.041Z,22.23
2017-08-23T07:31:26.633Z,22.3
2017-08-23T07:32:07.184Z,22.38
2017-08-23T07:32:47.783Z,22.39
2017-08-23T07:33:28.351Z,22.51
2017-08-23T07:34:08.942Z,22.53
2017-08-23T07:34:49.946Z,22.5
2017-08-23T07:35:30.525Z,22.57
2017-08-23T07:36:11.106Z,22.6
2017-08-23T07:36:51.700Z,22.59
2017-08-23T07:37:32.304Z,22.6
2017-08-23T07:38:12.913Z,22.69
2017-08-23T07:38:53.507Z,22.66
2017-08-23T07:39:34.076Z,22.8
2017-08-23T07:40:14.651Z,22.81
2017-08-23T07:40:55.235Z,22.8
2017-08-23T07:41:35.813Z,22.85
2017-08-23T07:42:16.417Z,22.93
2017-08-23T07:42:56.996Z,22.94
2017-08-23T07:43:37.629Z,22.98
2017-08-23T07:44:18.208Z,22.96
2017-08-23T07:44:58.800Z,23.03
2017-08-23T07:45:39.379Z,23.06
2017-08-23T07:46:19.996Z,23.06
2017-08-23T07:47:00.612Z,23.09
2017-08-23T07:47:41.208Z,23.1
2017-08-23T07:48:21.775Z,23.17
2017-08-23T07:49:02.354Z,23.13
2017-08-23T07:49:42.937Z,23.21
2017-08-23T07:50:23.505Z,23.2
2017-08-23T07:51:04.076Z,23.32
2017-08-23T07:51:44.650Z,23.36
2017-08-23T07:52:25.232Z,23.44
2017-08-23T07:53:05.821Z,23.39
2017-08-23T07:53:46.406Z,23.5
2017-08-23T07:54:26.991Z,23.4
2017-08-23T07:55:07.580Z,23.51
2017-08-23T07:55:48.188Z,23.46
2017-08-23T07:56:28.739Z,23.63
2017-08-23T07:57:09.335Z,23.54
2017-08-23T07:57:49.913Z,23.56
2017-08-23T07:58:30.535Z,23.65
2017-08-23T07:59:11.108Z,23.56
2017-08-23T07:59:51.703Z,23.59
2017-08-23T08:00:32.283Z,23.55
2017-08-23T08:01:12.867Z,23.59
2017-08-23T08:01:53.452Z,23.58
2017-08-23T08:02:34.044Z,23.51
2017-08-23T08:03:14.639Z,23.47
2017-08-23T08:03:55.241Z,23.5
2017-08-23T08:04:35.849Z,23.48
2017-08-23T08:05:16.445Z,23.48
2017-08-23T08:05:57.044Z,23.51
2017-08-23T08:06:37.650Z,23.47
2017-08-23T08:07:18.243Z,23.54
2017-08-23T08:07:58.818Z,23.47
2017-08-23T08:08:39.411Z,23.44
2017-08-23T08:09:19.993Z,23.47
2017-08-23T08:10:00.590Z,23.5
2017-08-23T08:10:41.157Z,23.48
2017-08-23T08:11:21.740Z,23.47
2017-08-23T08:12:02.317Z,23.47
2017-08-23T08:12:42.885Z,23.36
2017-08-23T08:13:23.488Z,23.37
2017-08-23T08:14:04.061Z,23.32
2017-08-23T08:14:44.631Z,23.32
2017-08-23T08:15:25.210Z,23.4
2017-08-23T08:16:05.785Z,23.39
2017-08-23T08:16:46.357Z,23.34
2017-08-23T08:17:26.938Z,23.37
2017-08-23T08:18:07.525Z,23.34
2017-08-23T08:18:48.099Z,23.37
2017-08-23T08:19:28.678Z,23.31
2017-08-23T08:20:09.257Z,23.18
2017-08-23T08:20:49.843Z,23.2
2017-08-23T08:21:30.440Z,23.15
2017-08-23T08:22:11.022Z,23.23
2017-08-23T08:22:51.601Z,23.23
2017-08-23T08:23:32.165Z,23.24
2017-08-23T08:24:12.747Z,23.24
2017-08-23T08:24:53.323Z,23.34
2017-08-23T08:25:33.897Z,23.27
2017-08-23T08:26:14.471Z,23.37
2017-08-23T08:26:55.050Z,23.39
2017-08-23T08:27:35.638Z,23.32
2017-08-23T08:28:16.218Z,23.37
2017-08-23T08:28:56.802Z,23.39
2017-08-23T08:29:37.398Z,23.32
2017-08-23T08:30:17.975Z,23.36
2017-08-23T08:30:58.551Z,23.28
2017-08-23T08:31:39.146Z,23.37
2017-08-23T08:32:19.719Z,23.41
2017-08-23T08:33:00.308Z,23.41
2017-08-23T08:33:40.892Z,23.44
2017-08-23T08:34:21.475Z,23.44
2017-08-23T08:35:02.065Z,23.4
2017-08-23T08:35:42.647Z,23.56
2017-08-23T08:36:23.222Z,23.5
2017-08-23T08:37:03.845Z,23.5
2017-08-23T08:37:44.461Z,23.48
2017-08-23T08:38:25.026Z,23.43
2017-08-23T08:39:05.617Z,23.44
2017-08-23T08:39:46.186Z,23.46
2017-08-23T08:40:26.759Z,23.36
2017-08-23T08:41:07.336Z,23.25
2017-08-23T08:41:47.916Z,23.36
2017-08-23T08:42:28.493Z,23.28
2017-08-23T08:43:09.079Z,23.31
2017-08-23T08:43:49.652Z,23.37
2017-08-23T08:44:30.240Z,23.36